Time;durP1;ratioP1;P1;durP2;ratioP2;P2;SDS_P1;SDS_P2;PMS_P1;PMS_P2;Temp;Humidity;BMP_temperature;BMP_pressure;BME280_temperature;BME280_humidity;BME280_pressure;Samples;Min_cycle;Max_cycle;Signal;HPM_P1;HPM_P2
2022/06/30 00:00:57;;;;;;;7.15;1.95;;;;;;;28.20;42.25;99133.13;4341846;33;34668;-83
2022/06/30 00:03:26;;;;;;;2.65;1.50;;;;;;;28.23;42.74;99132.81;4338244;33;34022;-84
2022/06/30 00:05:55;;;;;;;7.18;1.75;;;;;;;28.13;42.25;99138.19;4340689;33;33854;-84
2022/06/30 00:08:24;;;;;;;3.60;2.15;;;;;;;28.11;42.44;99134.00;4338627;33;33604;-84
2022/06/30 00:10:53;;;;;;;4.28;2.12;;;;;;;28.06;42.30;99134.44;4333784;33;34531;-83
2022/06/30 00:13:23;;;;;;;3.85;1.83;;;;;;;27.85;42.93;99127.47;4339363;33;33658;-83
2022/06/30 00:15:52;;;;;;;2.33;1.35;;;;;;;27.89;42.62;99135.19;4331609;33;32334;-84
2022/06/30 00:18:21;;;;;;;2.72;1.30;;;;;;;27.95;42.21;99135.44;4339233;33;33697;-84
2022/06/30 00:20:57;;;;;;;3.85;1.85;;;;;;;27.92;42.57;99153.56;4336171;33;34074;-84
2022/06/30 00:23:26;;;;;;;3.78;1.70;;;;;;;27.93;42.01;99150.72;4334825;33;33707;-84
2022/06/30 00:25:55;;;;;;;4.30;1.70;;;;;;;27.86;41.57;99149.66;4339327;33;34711;-84
2022/06/30 00:28:25;;;;;;;3.22;1.40;;;;;;;28.01;41.33;99142.88;4339936;33;34196;-84
2022/06/30 00:30:54;;;;;;;6.45;2.12;;;;;;;27.96;41.09;99133.63;4335329;33;32976;-84
2022/06/30 00:33:23;;;;;;;2.83;1.50;;;;;;;27.88;41.17;99147.66;4338744;33;33719;-83
2022/06/30 00:35:52;;;;;;;3.80;1.90;;;;;;;27.83;41.17;99144.59;4334359;33;33918;-83
2022/06/30 00:38:21;;;;;;;2.92;1.65;;;;;;;27.85;41.26;99145.28;4346406;33;33408;-85
2022/06/30 00:40:50;;;;;;;3.15;1.50;;;;;;;27.95;40.01;99139.94;4335803;33;34018;-83
2022/06/30 00:43:18;;;;;;;3.97;1.77;;;;;;;27.78;41.18;99149.47;4335502;33;33938;-83
2022/06/30 00:45:49;;;;;;;2.25;1.40;;;;;;;27.77;41.60;99140.66;4329697;33;34081;-84
2022/06/30 00:48:19;;;;;;;2.45;1.55;;;;;;;27.78;41.30;99138.81;4334658;33;33472;-83
2022/06/30 00:50:48;;;;;;;5.27;1.53;;;;;;;27.61;41.56;99140.37;4339839;33;33760;-84
2022/06/30 00:53:18;;;;;;;5.87;2.12;;;;;;;27.67;40.90;99139.84;4346074;33;33951;-83
2022/06/30 00:55:48;;;;;;;4.03;1.58;;;;;;;27.61;41.68;99137.72;4336186;33;33179;-84
2022/06/30 00:58:19;;;;;;;12.95;2.20;;;;;;;27.54;42.01;99131.28;4340465;33;32522;-83
2022/06/30 01:00:50;;;;;;;3.37;1.90;;;;;;;27.65;42.44;99141.78;4334201;33;33169;-84
2022/06/30 01:03:20;;;;;;;3.20;1.62;;;;;;;27.51;43.10;99136.91;4334754;33;34770;-83
2022/06/30 01:05:49;;;;;;;3.85;1.70;;;;;;;27.26;43.76;99131.19;4338201;33;33516;-84
2022/06/30 01:08:18;;;;;;;2.97;1.45;;;;;;;27.34;43.04;99133.97;4339735;33;32936;-84
2022/06/30 01:13:35;;;;;;;3.42;1.90;;;;;;;27.02;42.97;99131.56;4338709;33;33710;-83
2022/06/30 01:16:07;;;;;;;4.20;1.83;;;;;;;26.91;43.96;99134.34;4337433;33;34029;-83
2022/06/30 01:18:36;;;;;;;2.58;1.50;;;;;;;27.07;43.94;99131.13;4337272;33;33932;-83
2022/06/30 01:21:06;;;;;;;3.25;1.80;;;;;;;27.07;44.04;99129.31;4338195;33;34616;-83
2022/06/30 01:23:36;;;;;;;3.12;1.80;;;;;;;26.88;44.69;99124.81;4337862;33;33587;-83
2022/06/30 01:26:05;;;;;;;6.30;1.80;;;;;;;26.80;44.71;99138.81;4336132;33;32900;-84
2022/06/30 01:28:34;;;;;;;2.47;1.70;;;;;;;26.80;45.03;99132.66;4339986;33;33040;-84
2022/06/30 01:31:03;;;;;;;5.80;1.80;;;;;;;26.71;44.53;99139.63;4331901;33;34189;-84
2022/06/30 01:33:32;;;;;;;2.92;1.58;;;;;;;26.68;44.73;99134.59;4332913;33;33880;-84
2022/06/30 01:36:01;;;;;;;3.15;1.70;;;;;;;26.71;44.93;99141.44;4341241;33;32350;-84
2022/06/30 01:38:30;;;;;;;4.10;1.60;;;;;;;26.69;44.94;99138.91;4341002;33;33919;-83
2022/06/30 01:41:00;;;;;;;2.62;1.58;;;;;;;26.50;45.18;99134.34;4342994;33;33604;-83
2022/06/30 01:43:29;;;;;;;3.08;1.98;;;;;;;26.39;45.06;99137.97;4341050;33;36766;-83
2022/06/30 01:45:57;;;;;;;3.65;1.58;;;;;;;26.46;44.91;99138.28;4340849;33;34276;-83
2022/06/30 01:48:26;;;;;;;2.42;1.23;;;;;;;26.49;44.45;99131.84;4346523;33;34158;-85
2022/06/30 01:50:55;;;;;;;2.90;1.40;;;;;;;26.35;45.18;99144.53;4339312;33;34614;-83
2022/06/30 01:53:24;;;;;;;2.65;1.48;;;;;;;26.21;44.78;99144.88;4341749;33;34015;-83
2022/06/30 01:55:53;;;;;;;2.97;1.90;;;;;;;26.29;44.34;99150.38;4336571;33;33826;-84
2022/06/30 01:58:23;;;;;;;3.47;1.70;;;;;;;26.18;45.06;99150.47;4342673;33;33348;-83
2022/06/30 02:00:54;;;;;;;2.58;1.58;;;;;;;26.21;45.04;99154.69;4340725;33;33382;-84
2022/06/30 02:03:23;;;;;;;15.48;2.15;;;;;;;26.23;45.20;99148.25;4340702;33;34956;-83
2022/06/30 02:05:52;;;;;;;3.80;1.75;;;;;;;26.12;45.78;99158.97;4341221;33;34710;-84
2022/06/30 02:08:21;;;;;;;2.83;1.45;;;;;;;25.96;46.30;99157.63;4342361;33;33661;-83
2022/06/30 02:10:50;;;;;;;3.10;1.80;;;;;;;26.13;45.64;99150.88;4342420;33;33856;-84
2022/06/30 02:13:18;;;;;;;3.17;1.90;;;;;;;25.80;46.84;99156.38;4342323;33;34008;-83
2022/06/30 02:15:49;;;;;;;3.55;1.75;;;;;;;25.91;46.86;99159.00;4340781;33;34696;-83
2022/06/30 02:18:18;;;;;;;2.95;1.70;;;;;;;26.01;45.84;99159.06;4341529;32;33312;-83
2022/06/30 02:20:47;;;;;;;3.47;1.85;;;;;;;25.82;46.71;99154.44;4339039;33;34373;-83
2022/06/30 02:23:16;;;;;;;2.47;1.50;;;;;;;25.85;46.42;99156.81;4337677;33;33926;-84
2022/06/30 02:25:47;;;;;;;4.20;2.05;;;;;;;25.82;46.40;99152.63;4338919;33;33745;-83
2022/06/30 02:28:15;;;;;;;;;;;;;;;25.86;46.09;99153.25;4345412;33;33308;-83
2022/06/30 02:31:01;;;;;;;4.25;1.87;;;;;;;25.87;46.47;99157.56;4339183;33;33185;-83
2022/06/30 02:33:29;;;;;;;3.85;1.45;;;;;;;25.87;45.96;99158.41;4336675;33;33339;-84
2022/06/30 02:35:58;;;;;;;4.37;1.70;;;;;;;25.75;45.72;99165.56;4341513;33;34676;-83
2022/06/30 02:38:27;;;;;;;1.70;1.30;;;;;;;25.70;46.06;99151.84;4340980;33;33298;-83
2022/06/30 02:40:56;;;;;;;3.33;1.77;;;;;;;25.69;45.89;99159.97;4345030;33;33131;-83
2022/06/30 02:43:25;;;;;;;5.15;2.05;;;;;;;25.64;46.50;99163.00;4340104;33;34773;-83
2022/06/30 02:45:53;;;;;;;3.67;1.83;;;;;;;25.73;45.56;99156.06;4333277;33;34016;-83
2022/06/30 02:48:23;;;;;;;5.28;1.75;;;;;;;25.70;45.41;99153.66;4327880;33;33735;-83
2022/06/30 02:50:52;;;;;;;4.32;1.80;;;;;;;25.75;45.14;99148.78;4342934;33;33852;-83
2022/06/30 02:53:21;;;;;;;3.33;1.60;;;;;;;25.62;45.45;99148.16;4340952;33;33855;-83
2022/06/30 02:55:55;;;;;;;3.00;1.42;;;;;;;25.62;45.60;99151.66;4341131;33;34035;-83
2022/06/30 02:58:24;;;;;;;3.45;1.80;;;;;;;25.24;46.22;99137.09;4343040;33;33566;-83
2022/06/30 03:00:53;;;;;;;4.18;1.70;;;;;;;25.39;46.03;99145.59;4342824;33;33948;-83
2022/06/30 03:03:23;;;;;;;4.32;1.70;;;;;;;25.67;45.57;99151.28;4340363;33;34146;-83
2022/06/30 03:05:51;;;;;;;2.80;1.75;;;;;;;25.49;46.06;99149.19;4342412;33;34114;-84
2022/06/30 03:08:20;;;;;;;4.87;3.28;;;;;;;25.64;45.61;99156.84;4345071;33;33533;-83
2022/06/30 03:10:49;;;;;;;3.08;1.35;;;;;;;25.62;45.86;99164.09;4341732;32;34870;-83
2022/06/30 03:13:18;;;;;;;3.03;1.45;;;;;;;25.57;45.70;99168.97;4336367;33;33975;-84
2022/06/30 03:15:49;;;;;;;7.15;1.70;;;;;;;25.41;45.55;99175.53;4343338;33;33077;-83
2022/06/30 03:18:18;;;;;;;3.17;1.62;;;;;;;25.64;44.82;99172.78;4342047;33;34122;-83
2022/06/30 03:20:48;;;;;;;4.37;1.83;;;;;;;25.58;45.31;99179.44;4338619;33;32025;-83
2022/06/30 03:23:17;;;;;;;5.83;1.57;;;;;;;25.52;45.87;99177.31;4340871;33;33883;-83
2022/06/30 03:25:46;;;;;;;3.00;1.55;;;;;;;25.53;45.10;99173.69;4342067;33;34468;-83
2022/06/30 03:28:16;;;;;;;2.87;1.58;;;;;;;25.54;45.79;99178.87;4340879;33;33048;-83
2022/06/30 03:30:47;;;;;;;2.47;1.58;;;;;;;25.58;45.66;99179.44;4335668;33;33258;-83
2022/06/30 03:33:20;;;;;;;3.75;1.73;;;;;;;25.52;46.29;99186.13;4339944;33;34158;-83
2022/06/30 03:35:50;;;;;;;2.10;1.17;;;;;;;25.63;45.85;99187.88;4346666;33;34242;-83
2022/06/30 03:38:19;;;;;;;4.18;1.83;;;;;;;25.64;47.06;99188.72;4339853;33;33804;-83
2022/06/30 03:40:47;;;;;;;3.75;2.25;;;;;;;25.26;47.17;99187.44;4341591;33;33623;-83
2022/06/30 03:43:18;;;;;;;3.53;1.73;;;;;;;25.68;46.54;99190.97;4340164;33;34769;-83
2022/06/30 03:45:47;;;;;;;2.62;1.42;;;;;;;25.71;47.81;99192.56;4339863;33;34682;-84
2022/06/30 03:48:16;;;;;;;2.62;1.62;;;;;;;25.77;47.25;99197.34;4345073;33;33283;-84
2022/06/30 03:50:44;;;;;;;3.35;1.75;;;;;;;25.56;47.46;99197.31;4341058;33;34339;-83
2022/06/30 03:53:15;;;;;;;3.10;1.60;;;;;;;25.69;48.06;99199.81;4340024;33;34031;-83
2022/06/30 03:55:43;;;;;;;3.83;1.90;;;;;;;25.81;47.85;99198.78;4341198;33;32892;-85
2022/06/30 03:58:12;;;;;;;3.33;1.62;;;;;;;25.76;47.52;99209.78;4341909;33;34306;-83
2022/06/30 04:00:41;;;;;;;3.75;1.95;;;;;;;25.95;46.67;99209.13;4343128;33;33958;-84
2022/06/30 04:03:10;;;;;;;3.28;1.95;;;;;;;25.88;45.59;99202.63;4339272;33;34148;-83
2022/06/30 04:05:40;;;;;;;3.80;2.10;;;;;;;25.89;48.01;99206.97;4340318;33;33763;-83
2022/06/30 04:08:10;;;;;;;3.85;1.50;;;;;;;25.95;46.85;99209.13;4339175;33;33499;-84
2022/06/30 04:10:40;;;;;;;2.85;1.58;;;;;;;25.98;46.86;99210.66;4341073;33;34896;-83
2022/06/30 04:13:09;;;;;;;2.50;1.60;;;;;;;26.02;47.58;99217.38;4341710;33;34094;-84
2022/06/30 04:15:38;;;;;;;3.28;1.80;;;;;;;25.93;47.60;99215.53;4344909;33;34592;-83
2022/06/30 04:18:07;;;;;;;2.85;1.60;;;;;;;26.11;47.76;99208.63;4339893;33;34121;-84
2022/06/30 04:20:36;;;;;;;5.60;2.33;;;;;;;26.24;48.31;99216.44;4337143;33;33898;-83
2022/06/30 04:23:04;;;;;;;4.50;1.95;;;;;;;26.26;48.29;99195.00;4336247;33;33785;-83
2022/06/30 04:25:35;;;;;;;3.53;1.87;;;;;;;26.38;47.93;99199.25;4335785;33;33450;-83
2022/06/30 04:28:06;;;;;;;2.65;1.50;;;;;;;26.33;48.53;99197.00;4343807;33;33380;-83
2022/06/30 04:33:21;;;;;;;3.28;1.85;;;;;;;26.57;48.78;99196.72;4340148;33;34108;-83
2022/06/30 04:35:50;;;;;;;4.55;2.35;;;;;;;26.22;47.20;99201.59;4340655;33;34038;-83
2022/06/30 04:38:19;;;;;;;3.92;2.28;;;;;;;26.23;46.88;99205.91;4341826;33;33620;-83
2022/06/30 04:43:35;;;;;;;3.70;2.00;;;;;;;26.71;45.96;99216.78;4344895;33;33761;-84
2022/06/30 04:46:04;;;;;;;3.00;1.67;;;;;;;26.89;46.01;99214.31;4339411;33;33909;-84
2022/06/30 04:48:33;;;;;;;6.00;1.90;;;;;;;27.79;43.63;99213.31;4341697;33;34008;-83
2022/06/30 04:51:02;;;;;;;4.03;2.10;;;;;;;28.76;41.81;99212.25;4340682;32;33928;-83
2022/06/30 04:53:31;;;;;;;4.87;2.37;;;;;;;29.34;40.93;99203.88;4340875;33;34667;-84
2022/06/30 04:56:00;;;;;;;2.58;1.50;;;;;;;30.14;39.24;99208.37;4345069;33;33291;-84
2022/06/30 04:58:29;;;;;;;5.12;2.05;;;;;;;30.47;38.58;99201.41;4343465;33;33006;-84
2022/06/30 05:00:59;;;;;;;4.45;2.00;;;;;;;30.70;37.32;99199.00;4340324;33;34421;-85
2022/06/30 05:03:28;;;;;;;4.40;1.90;;;;;;;31.53;35.77;99213.47;4340993;33;32726;-84
2022/06/30 05:05:57;;;;;;;5.70;1.75;;;;;;;31.93;34.86;99211.81;4336749;33;32044;-84
2022/06/30 05:08:26;;;;;;;4.95;2.35;;;;;;;32.17;34.09;99208.28;4340349;33;32672;-83
2022/06/30 05:10:55;;;;;;;4.97;2.35;;;;;;;32.30;33.50;99211.25;4344799;32;33707;-83
2022/06/30 05:13:28;;;;;;;5.10;2.28;;;;;;;32.72;33.42;99202.09;4333701;33;34889;-85
2022/06/30 05:15:56;;;;;;;5.05;1.90;;;;;;;32.67;33.86;99202.63;4339286;33;33345;-84
2022/06/30 05:18:27;;;;;;;4.43;2.20;;;;;;;32.72;33.42;99199.41;4340410;33;33346;-84
2022/06/30 05:20:57;;;;;;;4.85;1.83;;;;;;;32.70;32.56;99204.12;4340371;33;33925;-85
2022/06/30 05:23:25;;;;;;;3.85;1.83;;;;;;;32.92;31.74;99205.19;4343872;33;34083;-84
2022/06/30 05:28:40;;;;;;;8.02;1.70;;;;;;;32.83;31.82;99206.22;4337186;33;32899;-84
2022/06/30 05:31:09;;;;;;;3.75;1.70;;;;;;;32.84;31.70;99211.44;4336649;33;34697;-84
2022/06/30 05:33:39;;;;;;;3.55;1.60;;;;;;;32.86;30.87;99213.94;4340013;33;33975;-84
2022/06/30 05:36:09;;;;;;;2.17;1.40;;;;;;;33.19;30.89;99219.16;4339991;33;32500;-85
2022/06/30 05:38:37;;;;;;;4.22;1.98;;;;;;;32.75;31.76;99209.78;4345299;33;33896;-85
2022/06/30 05:41:06;;;;;;;4.70;1.95;;;;;;;33.09;31.26;99209.47;4340415;33;34621;-85
2022/06/30 05:43:35;;;;;;;2.50;1.35;;;;;;;33.31;31.56;99206.97;4339016;32;34784;-84
2022/06/30 05:46:04;;;;;;;3.58;1.58;;;;;;;33.34;30.90;99218.19;4339431;33;33888;-84
2022/06/30 05:48:32;;;;;;;3.97;1.58;;;;;;;33.41;30.43;99222.87;4341071;33;33253;-85
2022/06/30 05:51:03;;;;;;;4.10;1.45;;;;;;;33.34;29.74;99209.31;4344924;33;34010;-84
2022/06/30 05:53:31;;;;;;;3.75;1.70;;;;;;;33.60;29.51;99216.22;4336064;33;34025;-86
2022/06/30 05:56:00;;;;;;;6.68;1.92;;;;;;;33.67;28.35;99222.56;4339178;33;33834;-84
2022/06/30 05:58:29;;;;;;;3.00;1.30;;;;;;;33.69;28.57;99210.59;4339724;33;33463;-85
2022/06/30 06:00:58;;;;;;;3.87;1.50;;;;;;;33.51;28.79;99210.03;4340782;33;33812;-85
2022/06/30 06:03:27;;;;;;;5.70;1.70;;;;;;;33.32;28.70;99214.88;4344455;33;33821;-84
2022/06/30 06:05:56;;;;;;;2.17;1.30;;;;;;;32.97;29.30;99205.47;4340877;33;33644;-84
2022/06/30 06:08:26;;;;;;;4.12;2.67;;;;;;;32.71;30.35;99213.81;4337412;33;33536;-84
2022/06/30 06:10:55;;;;;;;2.33;1.10;;;;;;;32.70;30.65;99209.47;4336278;33;33156;-85
2022/06/30 06:13:23;;;;;;;4.25;1.52;;;;;;;32.38;30.49;99219.31;4333381;33;32034;-85
2022/06/30 06:15:52;;;;;;;2.40;1.30;;;;;;;32.16;29.47;99215.50;4339779;33;33726;-85
2022/06/30 06:18:21;;;;;;;3.60;1.20;;;;;;;32.28;29.24;99214.13;4342761;33;34261;-85
2022/06/30 06:20:50;;;;;;;2.50;1.27;;;;;;;32.13;30.21;99206.94;4342152;32;33735;-85
2022/06/30 06:23:40;;;;;;;3.37;1.52;;;;;;;32.02;29.51;99210.81;4340300;33;33723;-85
2022/06/30 06:26:09;;;;;;;3.12;1.52;;;;;;;32.13;29.26;99207.78;4341933;33;35782;-85
2022/06/30 06:31:24;;;;;;;3.45;1.75;;;;;;;31.94;28.56;99208.94;4340208;33;33783;-85
2022/06/30 06:33:53;;;;;;;2.22;1.23;;;;;;;31.89;29.10;99222.87;4347054;33;33862;-85
2022/06/30 06:36:21;;;;;;;3.45;1.30;;;;;;;31.91;28.11;99213.81;4339681;33;34068;-85
2022/06/30 06:38:52;;;;;;;2.83;1.92;;;;;;;31.88;27.23;99213.16;4339683;33;32762;-85
2022/06/30 06:41:21;;;;;;;4.25;1.37;;;;;;;32.06;29.00;99206.78;4341651;33;32825;-86
2022/06/30 06:43:51;;;;;;;3.30;1.20;;;;;;;32.08;29.36;99204.75;4341649;33;34045;-85
2022/06/30 06:46:22;;;;;;;3.08;1.75;;;;;;;32.01;28.23;99209.13;4342307;33;33455;-84
2022/06/30 06:48:51;;;;;;;1.35;0.95;;;;;;;31.96;27.72;99206.13;4341465;33;33115;-85
2022/06/30 06:51:20;;;;;;;1.65;1.10;;;;;;;32.17;28.41;99210.97;4340571;33;34621;-85
2022/06/30 06:53:49;;;;;;;3.60;1.48;;;;;;;32.31;28.03;99211.09;4339861;33;33933;-85
2022/06/30 06:56:20;;;;;;;2.28;1.33;;;;;;;32.19;28.23;99207.09;4339603;33;33568;-85
2022/06/30 06:58:49;;;;;;;2.72;1.30;;;;;;;32.02;27.91;99202.78;4338020;33;32721;-85
2022/06/30 07:01:18;;;;;;;3.00;1.60;;;;;;;32.29;28.90;99202.38;4346014;33;34287;-86
2022/06/30 07:03:47;;;;;;;2.70;1.10;;;;;;;32.24;28.29;99201.22;4341122;33;33655;-86
2022/06/30 07:06:15;;;;;;;2.10;1.27;;;;;;;32.40;27.49;99208.37;4341261;33;34255;-85
2022/06/30 07:08:44;;;;;;;3.00;1.40;;;;;;;32.10;28.00;99203.56;4339872;33;33172;-86
2022/06/30 07:11:13;;;;;;;3.33;1.40;;;;;;;32.40;28.52;99201.16;4340984;32;33874;-85
2022/06/30 07:13:43;;;;;;;3.53;1.70;;;;;;;32.39;28.61;99202.16;4343948;33;33872;-85
2022/06/30 07:16:12;;;;;;;2.08;1.40;;;;;;;32.61;27.95;99199.78;4339113;33;33083;-85
2022/06/30 07:18:41;;;;;;;2.22;1.20;;;;;;;32.69;27.81;99199.72;4339226;33;33321;-85
2022/06/30 07:21:10;;;;;;;3.20;1.55;;;;;;;32.85;28.07;99201.53;4339499;33;35083;-85
2022/06/30 07:23:39;;;;;;;2.42;1.40;;;;;;;32.69;27.47;99197.03;4340420;33;34020;-86
2022/06/30 07:26:08;;;;;;;2.72;1.27;;;;;;;32.69;27.87;99192.53;4344402;33;34590;-85
2022/06/30 07:28:36;;;;;;;2.78;1.48;;;;;;;32.84;28.19;99194.47;4339109;33;33962;-85
2022/06/30 07:31:23;;;;;;;2.20;1.20;;;;;;;32.72;27.44;99196.72;4336957;33;34448;-86
2022/06/30 07:33:53;;;;;;;2.70;1.55;;;;;;;32.73;27.67;99183.09;4339761;33;33988;-84
2022/06/30 07:36:22;;;;;;;3.45;1.85;;;;;;;32.82;27.67;99185.75;4340072;33;34781;-85
2022/06/30 07:38:51;;;;;;;3.45;1.58;;;;;;;32.85;27.98;99180.03;4334908;33;33350;-86
2022/06/30 07:41:20;;;;;;;2.58;1.27;;;;;;;32.92;26.46;99189.06;4344251;33;33958;-85
2022/06/30 07:43:49;;;;;;;3.78;1.60;;;;;;;33.03;27.24;99195.88;4339573;33;33104;-85
2022/06/30 07:46:20;;;;;;;3.65;1.73;;;;;;;33.25;26.95;99187.03;4340681;33;33854;-85
2022/06/30 07:48:51;;;;;;;3.90;1.95;;;;;;;33.35;27.03;99184.13;4338992;33;33449;-85
2022/06/30 07:51:20;;;;;;;2.85;1.23;;;;;;;33.38;27.21;99186.44;4335701;33;32599;-85
2022/06/30 07:53:49;;;;;;;1.87;1.00;;;;;;;33.29;26.93;99179.44;4339743;33;33958;-85
2022/06/30 07:56:18;;;;;;;3.58;1.50;;;;;;;33.24;26.21;99184.53;4335635;33;32391;-85
2022/06/30 07:58:48;;;;;;;2.20;1.02;;;;;;;33.43;25.92;99178.66;4339390;33;33541;-85
2022/06/30 08:01:18;;;;;;;3.67;1.37;;;;;;;33.43;25.50;99173.28;4336636;33;32939;-85
2022/06/30 08:03:47;;;;;;;3.70;1.20;;;;;;;33.65;25.40;99177.00;4340473;33;33781;-85
2022/06/30 08:06:18;;;;;;;2.40;1.37;;;;;;;33.62;25.98;99179.22;4341127;33;33716;-86
2022/06/30 08:08:46;;;;;;;4.00;1.30;;;;;;;33.48;25.88;99181.62;4342175;33;33479;-85
2022/06/30 08:11:15;;;;;;;2.30;1.10;;;;;;;33.65;26.06;99176.16;4337704;33;33862;-86
2022/06/30 08:13:44;;;;;;;2.40;1.20;;;;;;;33.89;25.93;99177.78;4338397;33;32858;-86
2022/06/30 08:16:13;;;;;;;4.65;1.52;;;;;;;33.90;26.27;99179.44;4340531;33;33820;-86
2022/06/30 08:18:42;;;;;;;3.13;1.30;;;;;;;33.87;26.67;99177.97;4338354;33;34118;-86
2022/06/30 08:21:11;;;;;;;3.55;1.87;;;;;;;34.08;26.32;99177.28;4338259;33;33934;-85
2022/06/30 08:23:41;;;;;;;5.18;2.75;;;;;;;34.15;26.25;99172.00;4339298;32;33951;-85
2022/06/30 08:26:10;;;;;;;5.00;2.03;;;;;;;33.96;25.72;99174.19;4339167;33;33569;-85
2022/06/30 08:28:39;;;;;;;2.10;1.37;;;;;;;34.27;25.88;99172.38;4340510;32;33678;-86
2022/06/30 08:31:16;;;;;;;3.90;1.52;;;;;;;34.04;25.19;99167.03;4337496;33;34087;-86
2022/06/30 08:33:45;;;;;;;4.80;1.37;;;;;;;34.34;25.93;99171.44;4342949;33;33615;-86
2022/06/30 08:36:16;;;;;;;2.37;1.10;;;;;;;34.41;25.64;99171.53;4341625;33;33625;-86
2022/06/30 08:38:46;;;;;;;2.55;1.33;;;;;;;34.13;24.91;99165.97;4335937;33;33446;-85
2022/06/30 08:44:01;;;;;;;1.87;0.90;;;;;;;34.56;25.30;99164.28;4336242;33;33608;-86
2022/06/30 08:46:32;;;;;;;2.05;1.15;;;;;;;34.53;24.33;99156.56;4339510;33;33429;-86
2022/06/30 08:49:00;;;;;;;;;;;;;;;34.33;24.75;99159.00;4343887;33;32626;-86
2022/06/30 08:51:30;;;;;;;4.65;1.77;;;;;;;34.60;23.11;99149.44;4338377;33;34858;-86
2022/06/30 08:54:01;;;;;;;3.55;1.20;;;;;;;34.67;24.37;99154.06;4336763;33;34753;-86
2022/06/30 08:56:31;;;;;;;3.15;1.60;;;;;;;34.61;23.37;99161.06;4339072;33;33720;-86
2022/06/30 08:59:00;;;;;;;5.50;2.03;;;;;;;34.97;23.73;99157.53;4333272;33;32852;-85
2022/06/30 09:01:29;;;;;;;4.40;1.87;;;;;;;35.05;23.33;99160.09;4327608;33;33783;-86
2022/06/30 09:03:59;;;;;;;1.95;1.37;;;;;;;35.09;23.20;99157.88;4334728;33;34004;-85
2022/06/30 09:06:28;;;;;;;3.12;1.70;;;;;;;35.25;24.25;99161.19;4329527;33;34423;-85
2022/06/30 09:09:06;;;;;;;3.20;1.60;;;;;;;35.37;24.53;99153.38;4332080;33;33823;-86
2022/06/30 09:11:44;;;;;;;;;;;;;;;35.60;23.02;99158.59;4335762;33;34280;-86
2022/06/30 09:14:34;;;;;;;12.63;1.92;;;;;;;35.56;22.11;99159.97;4335564;33;34956;-85
2022/06/30 09:17:03;;;;;;;4.00;1.02;;;;;;;35.81;24.53;99151.47;4338916;33;34499;-86
2022/06/30 09:19:33;;;;;;;1.37;0.98;;;;;;;35.51;22.45;99158.91;4343664;33;33942;-85
2022/06/30 09:22:06;;;;;;;2.33;1.30;;;;;;;35.62;22.54;99151.16;4338728;33;34563;-85
2022/06/30 09:24:37;;;;;;;2.50;1.35;;;;;;;35.68;23.59;99155.75;4340016;33;33724;-85
2022/06/30 09:27:11;;;;;;;2.80;1.10;;;;;;;35.54;22.47;99167.44;4341079;32;33968;-86
2022/06/30 09:30:04;;;;;;;2.55;1.12;;;;;;;35.91;24.41;99160.09;4339399;33;34198;-86
2022/06/30 09:32:48;;;;;;;1.70;1.00;;;;;;;35.97;22.49;99158.44;4339251;32;33790;-85
2022/06/30 09:35:18;;;;;;;3.10;1.15;;;;;;;36.04;23.17;99154.75;4340651;32;34016;-86
2022/06/30 09:37:58;;;;;;;3.22;1.20;;;;;;;36.30;21.94;99151.41;4345722;32;33131;-87
2022/06/30 09:40:33;;;;;;;1.73;0.95;;;;;;;36.25;20.45;99155.75;4340208;33;33338;-87
2022/06/30 09:43:03;;;;;;;3.40;1.60;;;;;;;36.24;19.58;99143.25;4339247;33;33748;-86
2022/06/30 09:45:40;;;;;;;1.35;0.90;;;;;;;36.42;19.31;99137.34;4340338;33;33087;-87
2022/06/30 09:48:10;;;;;;;6.75;2.10;;;;;;;36.52;19.84;99141.31;4338014;33;34552;-85
2022/06/30 09:50:39;;;;;;;2.12;0.95;;;;;;;36.38;20.98;99134.19;4340084;33;33627;-86
2022/06/30 09:53:11;;;;;;;2.62;1.25;;;;;;;36.48;20.62;99134.66;4344355;33;34317;-86
2022/06/30 09:55:44;;;;;;;4.43;1.55;;;;;;;36.16;20.92;99133.47;4342576;32;34709;-86
2022/06/30 09:58:14;;;;;;;3.87;1.35;;;;;;;36.51;20.94;99130.69;4341052;32;34553;-86
2022/06/30 10:00:53;;;;;;;2.55;1.10;;;;;;;36.48;20.94;99125.72;4334981;33;32765;-87
2022/06/30 10:03:22;;;;;;;1.77;0.90;;;;;;;36.90;22.13;99119.22;4340980;33;33760;-86
2022/06/30 10:06:08;;;;;;;1.73;0.90;;;;;;;36.91;20.33;99125.47;4335155;33;34002;-86
2022/06/30 10:08:38;;;;;;;1.95;1.12;;;;;;;36.82;19.99;99123.97;4347978;32;33286;-86
2022/06/30 10:11:12;;;;;;;2.17;0.95;;;;;;;36.89;20.66;99117.56;4339436;33;33920;-86
2022/06/30 10:13:43;;;;;;;2.90;1.23;;;;;;;37.00;20.78;99115.31;4337081;33;34848;-86
2022/06/30 10:16:14;;;;;;;1.90;1.35;;;;;;;37.15;20.23;99124.09;4328185;32;32738;-86
2022/06/30 10:18:43;;;;;;;2.00;1.10;;;;;;;37.23;19.13;99123.87;4333736;33;33792;-87
2022/06/30 10:21:11;;;;;;;2.03;1.05;;;;;;;37.27;19.58;99108.91;4340151;33;33549;-86
2022/06/30 10:23:40;;;;;;;3.17;1.08;;;;;;;37.50;20.06;99108.50;4336598;33;33471;-86
2022/06/30 10:27:12;;;;;;;2.73;1.67;;;;;;;37.59;19.99;99109.13;4338051;33;33727;-85
2022/06/30 10:29:06;;;;;;;2.05;0.90;;;;;;;37.51;19.64;99103.91;4333568;33;34008;-87
2022/06/30 10:31:44;;;;;;;2.03;1.00;;;;;;;37.69;19.13;99106.81;4341433;33;33190;-86
2022/06/30 10:34:17;;;;;;;1.93;1.13;;;;;;;37.72;18.52;99102.84;4340226;33;33659;-87
2022/06/30 10:37:00;;;;;;;1.00;0.70;;;;;;;37.76;17.76;99106.81;4346963;33;33561;-87
2022/06/30 10:39:39;;;;;;;4.32;1.42;;;;;;;37.87;18.03;99108.87;4341371;33;34575;-86
2022/06/30 10:42:10;;;;;;;0.93;0.70;;;;;;;38.06;17.58;99098.22;4337226;33;33109;-87
2022/06/30 10:44:39;;;;;;;2.95;1.00;;;;;;;38.21;18.40;99098.81;4337723;32;34159;-87
2022/06/30 10:47:18;;;;;;;1.87;0.90;;;;;;;38.38;17.74;99101.87;4338095;32;34325;-87
2022/06/30 10:49:58;;;;;;;1.80;0.77;;;;;;;38.49;18.45;99105.81;4328453;32;33929;-87
2022/06/30 10:52:31;;;;;;;3.60;1.50;;;;;;;38.66;17.40;99096.13;4339049;32;33930;-87
2022/06/30 10:55:06;;;;;;;3.95;1.00;;;;;;;38.66;18.12;99103.44;4340414;32;33635;-88
2022/06/30 10:58:06;;;;;;;2.65;0.95;;;;;;;38.91;17.49;99092.69;4342092;32;35817;-87
2022/06/30 11:00:46;;;;;;;1.83;1.05;;;;;;;39.21;17.32;99099.13;4342820;32;33122;-87
2022/06/30 11:03:59;;;;;;;3.08;0.95;;;;;;;39.18;16.33;99090.59;4340416;33;33828;-85
2022/06/30 11:07:00;;;;;;;2.17;0.45;;;;;;;38.98;16.21;99090.75;4337556;32;33573;-85
2022/06/30 11:10:06;;;;;;;1.93;0.93;;;;;;;39.27;14.85;99089.28;4336815;32;33689;-85
2022/06/30 11:12:54;;;;;;;7.65;1.77;;;;;;;39.17;16.25;99097.91;4335314;32;33699;-85
2022/06/30 11:15:55;;;;;;;1.62;1.00;;;;;;;39.46;15.36;99088.31;4334643;32;33413;-86
2022/06/30 11:18:24;;;;;;;;;;;;;;;39.23;16.00;99080.75;4338163;32;33640;-86
2022/06/30 11:20:54;;;;;;;0.70;0.50;;;;;;;39.46;16.00;99082.88;4339358;32;33361;-87
2022/06/30 11:23:23;;;;;;;1.80;1.00;;;;;;;39.55;14.91;99071.72;4337927;32;33244;-86
2022/06/30 11:28:41;;;;;;;4.43;1.00;;;;;;;40.14;15.63;99075.72;4335613;32;34567;-87
2022/06/30 11:31:30;;;;;;;2.20;1.10;;;;;;;39.86;15.83;99065.38;4336711;32;33200;-87
2022/06/30 11:34:02;;;;;;;2.00;0.57;;;;;;;40.29;16.47;99059.03;4335049;32;34498;-88
2022/06/30 11:36:31;;;;;;;2.60;1.40;;;;;;;40.28;15.46;99066.38;4339995;32;33337;-88
2022/06/30 11:39:01;;;;;;;3.40;1.00;;;;;;;40.27;15.40;99053.00;4339836;32;33698;-87
2022/06/30 11:44:16;;;;;;;1.80;0.80;;;;;;;40.28;13.96;99060.94;4338385;32;34027;-87
2022/06/30 11:46:55;;;;;;;1.33;0.85;;;;;;;40.55;13.51;99057.00;4347391;32;34004;-87
2022/06/30 11:49:27;;;;;;;0.80;0.55;;;;;;;40.67;13.82;99061.47;4335534;32;34412;-87
2022/06/30 11:51:57;;;;;;;4.05;1.45;;;;;;;40.53;13.30;99057.25;4331067;32;33853;-87
2022/06/30 11:54:27;;;;;;;2.20;1.00;;;;;;;40.41;13.91;99050.94;4343128;32;33216;-86
2022/06/30 11:56:57;;;;;;;2.35;0.73;;;;;;;40.77;14.33;99046.47;4338211;32;32158;-88
2022/06/30 11:59:26;;;;;;;1.27;0.70;;;;;;;40.64;13.74;99042.84;4338682;32;34093;-87
2022/06/30 12:02:05;;;;;;;1.30;1.10;;;;;;;40.88;13.54;99042.94;4336352;32;34586;-87
2022/06/30 12:04:53;;;;;;;1.48;0.45;;;;;;;40.92;13.32;99039.53;4334384;32;34205;-87
2022/06/30 12:07:34;;;;;;;4.35;1.55;;;;;;;41.15;13.85;99025.16;4337636;32;34126;-88
2022/06/30 12:10:37;;;;;;;1.15;0.60;;;;;;;41.23;13.66;99034.03;4333784;32;33428;-87
2022/06/30 12:13:20;;;;;;;2.58;0.65;;;;;;;41.28;13.45;99048.59;4335388;32;34354;-88
2022/06/30 12:15:50;;;;;;;1.62;0.82;;;;;;;40.99;12.76;99036.69;4338326;32;34616;-86